createdAt,value
2023-04-01T00:00:43.860Z,30.10
2023-04-01T00:01:43.884Z,30.11
2023-04-01T00:02:44.017Z,30.10
2023-04-01T00:05:02.862Z,30.17
2023-04-01T00:06:02.859Z,30.14
2023-04-01T00:07:02.848Z,30.13
2023-04-01T00:08:02.849Z,30.12
2023-04-01T00:09:02.862Z,30.11
2023-04-01T00:10:02.858Z,30.13
2023-04-01T00:11:02.870Z,30.12
2023-04-01T00:12:02.868Z,30.14
2023-04-01T00:13:02.863Z,30.14
2023-04-01T00:14:02.846Z,30.15
2023-04-01T00:15:02.861Z,30.12
2023-04-01T00:16:03.370Z,30.13
2023-04-01T00:17:03.014Z,30.13
2023-04-01T00:18:02.935Z,30.12
2023-04-01T00:19:02.851Z,30.13
2023-04-01T00:20:02.828Z,30.13
2023-04-01T00:21:02.829Z,30.15
2023-04-01T00:22:02.827Z,30.11
2023-04-01T00:23:02.836Z,30.12
2023-04-01T00:24:02.837Z,30.14
2023-04-01T00:25:02.839Z,30.13
2023-04-01T00:26:02.824Z,30.14
2023-04-01T00:27:02.842Z,30.14
2023-04-01T00:28:02.826Z,30.13
2023-04-01T00:29:02.892Z,30.13
2023-04-01T00:30:02.849Z,30.14
2023-04-01T00:31:02.836Z,30.14
2023-04-01T00:32:02.887Z,30.12
2023-04-01T00:33:02.849Z,30.13
2023-04-01T00:34:02.836Z,30.14
2023-04-01T00:35:02.838Z,30.11
2023-04-01T00:36:02.836Z,30.13
2023-04-01T00:37:02.863Z,30.14
2023-04-01T00:38:02.837Z,30.12
2023-04-01T00:39:02.819Z,30.12
2023-04-01T00:40:02.822Z,30.12
2023-04-01T00:41:02.838Z,30.12
2023-04-01T00:42:02.816Z,30.12
2023-04-01T00:43:02.823Z,30.14
2023-04-01T00:44:02.818Z,30.14
2023-04-01T00:45:02.863Z,30.10
2023-04-01T00:46:02.879Z,30.14
2023-04-01T00:47:03.048Z,30.14
2023-04-01T00:48:02.968Z,30.13
2023-04-01T00:49:02.999Z,30.13
2023-04-01T00:50:03.067Z,30.15
2023-04-01T00:51:03.077Z,30.14
2023-04-01T00:52:03.107Z,30.14
2023-04-01T00:53:03.147Z,30.14
2023-04-01T00:54:03.180Z,30.13
2023-04-01T00:55:03.277Z,30.14
2023-04-01T00:56:03.264Z,30.11
2023-04-01T00:57:03.321Z,30.12
2023-04-01T00:58:03.333Z,30.15
2023-04-01T00:59:03.374Z,30.12
2023-04-01T01:00:03.424Z,30.14
2023-04-01T01:01:03.484Z,30.13
2023-04-01T01:02:03.527Z,30.13
2023-04-01T01:03:03.588Z,30.14
2023-04-01T01:04:03.576Z,30.13
2023-04-01T01:05:03.597Z,30.11
2023-04-01T01:06:03.649Z,30.13
2023-04-01T01:07:03.686Z,30.11
2023-04-01T01:08:03.714Z,30.14
2023-04-01T01:09:03.755Z,30.13
2023-04-01T01:10:03.821Z,30.13
2023-04-01T01:11:03.838Z,30.14
2023-04-01T01:12:03.864Z,30.15
2023-04-01T01:13:03.919Z,30.13
2023-04-01T01:14:03.953Z,30.13
2023-04-01T01:15:04.018Z,30.13
2023-04-01T01:16:04.095Z,30.14
2023-04-01T01:17:04.072Z,30.13
2023-04-01T01:18:04.175Z,30.16
2023-04-01T01:19:04.148Z,30.14
2023-04-01T01:20:05.915Z,30.15
2023-04-01T01:21:05.175Z,30.14
2023-04-01T01:22:04.174Z,30.14
2023-04-01T01:23:04.182Z,30.15
2023-04-01T01:24:04.167Z,30.15
2023-04-01T01:25:04.163Z,30.17
2023-04-01T01:26:04.157Z,30.14
2023-04-01T01:27:04.167Z,30.15
2023-04-01T01:28:04.160Z,30.13
2023-04-01T01:29:04.158Z,30.14
2023-04-01T01:30:04.165Z,30.13
2023-04-01T01:31:04.185Z,30.16
2023-04-01T01:32:04.145Z,30.14
2023-04-01T01:33:04.177Z,30.16
2023-04-01T01:34:04.154Z,30.15
2023-04-01T01:35:04.149Z,30.14
2023-04-01T01:36:04.250Z,30.13
2023-04-01T01:37:04.222Z,30.16
2023-04-01T01:38:04.260Z,30.16
2023-04-01T01:39:04.304Z,30.15
2023-04-01T01:40:04.370Z,30.16
2023-04-01T01:41:04.388Z,30.14
2023-04-01T01:42:04.421Z,30.14
2023-04-01T01:43:04.464Z,30.15
2023-04-01T01:44:04.527Z,30.16
2023-04-01T01:45:04.562Z,30.16
2023-04-01T01:46:04.636Z,30.15
2023-04-01T01:47:04.629Z,30.14
2023-04-01T01:48:04.723Z,30.18
2023-04-01T01:49:04.704Z,30.16
2023-04-01T01:50:04.743Z,30.16
2023-04-01T01:51:04.769Z,30.15
2023-04-01T01:52:04.816Z,30.13
2023-04-01T01:53:04.849Z,30.15
2023-04-01T01:54:04.878Z,30.12
2023-04-01T01:55:04.922Z,30.16
2023-04-01T01:56:04.964Z,30.13
2023-04-01T01:57:05.022Z,30.17
2023-04-01T01:58:05.021Z,30.15
2023-04-01T01:59:05.063Z,30.15
2023-04-01T02:00:05.097Z,30.15
2023-04-01T02:01:05.174Z,30.15
2023-04-01T02:02:05.170Z,30.17
2023-04-01T02:03:05.248Z,30.16
2023-04-01T02:04:05.297Z,30.14
2023-04-01T02:05:05.270Z,30.17
2023-04-01T02:06:05.251Z,30.15
2023-04-01T02:07:05.256Z,30.15
2023-04-01T02:08:05.257Z,30.15
2023-04-01T02:09:05.257Z,30.16
2023-04-01T02:10:05.285Z,30.14
2023-04-01T02:11:05.279Z,30.17
2023-04-01T02:12:05.262Z,30.14
2023-04-01T02:13:05.262Z,30.15
2023-04-01T02:14:05.265Z,30.15
2023-04-01T02:15:05.266Z,30.16
2023-04-01T02:16:05.271Z,30.15
2023-04-01T02:17:05.256Z,30.17
2023-04-01T02:18:05.298Z,30.16
2023-04-01T02:19:05.236Z,30.15
2023-04-01T02:20:05.239Z,30.16
2023-04-01T02:21:05.237Z,30.14
2023-04-01T02:22:05.236Z,30.16
2023-04-01T02:23:05.235Z,30.15
2023-04-01T02:24:05.259Z,30.14
2023-04-01T02:25:05.238Z,30.16
2023-04-01T02:26:05.233Z,30.14
2023-04-01T02:27:05.233Z,30.16
2023-04-01T02:28:05.235Z,30.15
2023-04-01T02:29:05.288Z,30.14
2023-04-01T02:30:05.325Z,30.15
2023-04-01T02:31:05.418Z,30.16
2023-04-01T02:32:05.404Z,30.15
2023-04-01T02:33:05.472Z,30.15
2023-04-01T02:34:05.470Z,30.16
2023-04-01T02:35:05.540Z,30.17
2023-04-01T02:36:05.617Z,30.15
2023-04-01T02:37:05.608Z,30.16
2023-04-01T02:38:05.637Z,30.16
2023-04-01T02:39:05.690Z,30.14
2023-04-01T02:40:05.728Z,30.16
2023-04-01T02:41:05.772Z,30.15
2023-04-01T02:42:05.829Z,30.15
2023-04-01T02:43:05.862Z,30.16
2023-04-01T02:44:05.907Z,30.16
2023-04-01T02:45:05.951Z,30.14
2023-04-01T02:46:05.998Z,30.16
2023-04-01T02:47:06.074Z,30.16
2023-04-01T02:48:06.122Z,30.15
2023-04-01T02:49:06.130Z,30.16
2023-04-01T02:50:06.167Z,30.16
2023-04-01T02:51:06.234Z,30.15
2023-04-01T02:52:06.266Z,30.15
2023-04-01T02:53:06.309Z,30.16
2023-04-01T02:54:06.357Z,30.17
2023-04-01T02:55:06.381Z,30.15
2023-04-01T02:56:06.436Z,30.15
2023-04-01T02:57:06.478Z,30.04
2023-04-01T02:58:06.492Z,29.12
2023-04-01T02:59:06.539Z,28.77
2023-04-01T03:00:06.569Z,28.58
2023-04-01T03:01:06.633Z,28.42
2023-04-01T03:02:06.682Z,28.20
2023-04-01T03:03:06.793Z,28.01
2023-04-01T03:04:06.766Z,27.78
2023-04-01T03:05:06.811Z,27.58
2023-04-01T03:06:06.879Z,27.53
2023-04-01T03:07:06.929Z,27.45
2023-04-01T03:08:06.962Z,27.27
2023-04-01T03:09:06.966Z,27.24
2023-04-01T03:10:06.967Z,27.06
2023-04-01T03:11:07.012Z,26.95
2023-04-01T03:12:06.992Z,26.85
2023-04-01T03:13:06.996Z,26.74
2023-04-01T03:14:07.033Z,26.70
2023-04-01T03:15:10.830Z,26.59
2023-04-01T03:16:07.069Z,26.52
2023-04-01T03:17:07.035Z,26.46
2023-04-01T03:18:07.088Z,26.41
2023-04-01T03:19:07.036Z,26.27
2023-04-01T03:20:07.050Z,26.23
2023-04-01T03:21:07.039Z,26.16
2023-04-01T03:22:07.040Z,26.11
2023-04-01T03:23:07.044Z,26.07
2023-04-01T03:24:07.056Z,26.04
2023-04-01T03:25:07.039Z,25.95
2023-04-01T03:26:07.049Z,25.95
2023-04-01T03:27:07.044Z,25.90
2023-04-01T03:28:07.044Z,25.88
2023-04-01T03:29:07.053Z,25.78
2023-04-01T03:30:07.074Z,25.82
2023-04-01T03:31:07.150Z,25.85
2023-04-01T03:32:07.060Z,25.78
2023-04-01T03:33:07.089Z,25.78
2023-04-01T03:34:07.066Z,25.73
2023-04-01T03:35:07.061Z,25.79
2023-04-01T03:36:07.110Z,25.73
2023-04-01T03:37:07.055Z,25.64
2023-04-01T03:38:07.066Z,25.66
2023-04-01T03:39:07.065Z,25.65
2023-04-01T03:40:07.064Z,25.56
2023-04-01T03:41:07.069Z,25.55
2023-04-01T03:42:07.074Z,25.58
2023-04-01T03:43:07.177Z,25.59
2023-04-01T03:44:07.154Z,25.50
2023-04-01T03:45:07.209Z,25.59
2023-04-01T03:46:07.302Z,25.55
2023-04-01T03:47:07.324Z,25.58
2023-04-01T03:48:07.459Z,25.50
2023-04-01T03:49:07.435Z,25.51
2023-04-01T03:50:07.493Z,25.50
2023-04-01T03:51:07.543Z,25.49
2023-04-01T03:52:07.609Z,25.42
2023-04-01T03:53:07.677Z,25.45
2023-04-01T03:54:07.675Z,25.48
2023-04-01T03:55:07.683Z,25.46
2023-04-01T03:56:07.719Z,25.39
2023-04-01T03:57:07.837Z,25.40
2023-04-01T03:58:07.708Z,25.45
2023-04-01T03:59:07.700Z,25.41
2023-04-01T04:00:07.701Z,25.44
2023-04-01T04:01:07.719Z,25.46
2023-04-01T04:02:07.723Z,25.41
2023-04-01T04:03:07.784Z,25.43
2023-04-01T04:04:07.769Z,25.44
2023-04-01T04:05:07.724Z,25.45
2023-04-01T04:06:07.730Z,25.41
2023-04-01T04:07:07.735Z,25.43
2023-04-01T04:08:07.746Z,25.42
2023-04-01T04:09:07.746Z,25.43
2023-04-01T04:10:07.742Z,25.40
2023-04-01T04:11:07.744Z,25.39
2023-04-01T04:12:07.762Z,25.42
2023-04-01T04:13:07.747Z,25.40
2023-04-01T04:14:07.757Z,25.36
2023-04-01T04:15:07.772Z,25.38
2023-04-01T04:16:07.841Z,25.44
2023-04-01T04:17:07.757Z,25.39
2023-04-01T04:18:07.834Z,25.35
2023-04-01T04:19:07.766Z,25.38
2023-04-01T04:20:07.795Z,25.39
2023-04-01T04:21:07.793Z,25.33
2023-04-01T04:22:07.825Z,25.32
2023-04-01T04:23:07.897Z,25.37
2023-04-01T04:24:07.970Z,25.38
2023-04-01T04:25:08.034Z,25.34
2023-04-01T04:26:08.092Z,25.35
2023-04-01T04:27:08.147Z,25.33
2023-04-01T04:28:08.206Z,25.30
2023-04-01T04:29:08.266Z,25.35
2023-04-01T04:30:08.351Z,25.36
2023-04-01T04:31:08.419Z,25.36
2023-04-01T04:32:08.453Z,25.36
2023-04-01T04:33:08.559Z,25.35
2023-04-01T04:34:08.534Z,25.30
2023-04-01T04:35:08.595Z,25.38
2023-04-01T04:36:08.684Z,25.35
2023-04-01T04:37:08.670Z,25.32
2023-04-01T04:38:08.722Z,25.33
2023-04-01T04:39:08.787Z,25.37
2023-04-01T04:40:08.849Z,25.35
2023-04-01T04:41:08.859Z,25.27
2023-04-01T04:42:08.908Z,25.32
2023-04-01T04:43:08.950Z,25.34
2023-04-01T04:44:08.966Z,25.32
2023-04-01T04:45:08.991Z,25.35
2023-04-01T04:46:09.018Z,25.36
2023-04-01T04:47:09.072Z,25.32
2023-04-01T04:48:09.118Z,25.30
2023-04-01T04:49:09.086Z,25.34
2023-04-01T04:50:09.111Z,25.38
2023-04-01T04:51:09.134Z,25.31
2023-04-01T04:52:09.138Z,25.37
2023-04-01T04:53:09.131Z,25.37
2023-04-01T04:54:09.136Z,25.37
2023-04-01T04:55:09.128Z,25.35
2023-04-01T04:56:09.144Z,25.38
2023-04-01T04:57:09.193Z,25.37
2023-04-01T04:58:09.143Z,25.38
2023-04-01T04:59:09.140Z,25.33
2023-04-01T05:00:09.133Z,25.38
2023-04-01T05:01:09.216Z,25.41
2023-04-01T05:02:09.170Z,25.41
2023-04-01T05:03:09.267Z,25.40
2023-04-01T05:04:09.150Z,25.42
2023-04-01T05:05:09.154Z,25.41
2023-04-01T05:06:09.159Z,25.43
2023-04-01T05:07:09.171Z,25.36
2023-04-01T05:08:09.176Z,25.44
2023-04-01T05:09:09.178Z,25.44
2023-04-01T05:10:09.186Z,25.45
2023-04-01T05:11:09.810Z,25.46
2023-04-01T05:12:09.211Z,25.44
2023-04-01T05:13:09.203Z,25.46
2023-04-01T05:14:09.213Z,25.48
2023-04-01T05:15:09.273Z,25.46
2023-04-01T05:16:09.219Z,25.48
2023-04-01T05:17:09.318Z,25.50
2023-04-01T05:18:09.267Z,25.47
2023-04-01T05:19:09.250Z,25.44
2023-04-01T05:20:09.290Z,25.46
2023-04-01T05:21:09.265Z,25.40
2023-04-01T05:22:09.304Z,25.37
2023-04-01T05:23:09.269Z,25.41
2023-04-01T05:24:09.304Z,25.44
2023-04-01T05:25:09.276Z,25.42
2023-04-01T05:26:09.299Z,25.43
2023-04-01T05:27:09.297Z,25.39
2023-04-01T05:28:09.312Z,25.47
2023-04-01T05:29:09.302Z,25.40
2023-04-01T05:30:09.297Z,25.41
2023-04-01T05:31:09.358Z,25.43
2023-04-01T05:32:09.307Z,25.41
2023-04-01T05:33:09.330Z,25.37
2023-04-01T05:34:09.311Z,25.40
2023-04-01T05:35:09.317Z,25.40
2023-04-01T05:36:09.363Z,25.42
2023-04-01T05:37:09.332Z,25.37
2023-04-01T05:38:09.339Z,25.42
2023-04-01T05:39:09.331Z,25.42
2023-04-01T05:40:09.336Z,25.42
2023-04-01T05:41:09.349Z,25.37
2023-04-01T05:42:09.333Z,25.38
2023-04-01T05:43:09.335Z,25.43
2023-04-01T05:44:09.338Z,25.43
2023-04-01T05:45:09.341Z,25.46
2023-04-01T05:46:09.451Z,25.44
2023-04-01T05:47:09.363Z,25.48
2023-04-01T05:48:09.378Z,25.44
2023-04-01T05:49:09.372Z,25.41
2023-04-01T05:50:09.375Z,25.46
2023-04-01T05:51:09.383Z,25.49
2023-04-01T05:52:09.408Z,25.48
2023-04-01T05:53:09.425Z,25.52
2023-04-01T05:54:09.431Z,25.53
2023-04-01T05:55:09.424Z,25.51
2023-04-01T05:56:09.457Z,25.51
2023-04-01T05:57:09.480Z,25.51
2023-04-01T05:58:09.502Z,25.47
2023-04-01T05:59:09.497Z,25.53
2023-04-01T06:00:09.522Z,25.55
2023-04-01T06:01:12.795Z,25.52
2023-04-01T06:02:10.549Z,25.52
2023-04-01T06:03:09.702Z,25.57
2023-04-01T06:04:09.656Z,25.58
2023-04-01T06:05:09.606Z,25.56
2023-04-01T06:06:09.605Z,25.57
2023-04-01T06:07:09.603Z,25.59
2023-04-01T06:08:09.636Z,25.59
2023-04-01T06:09:09.635Z,25.56
2023-04-01T06:10:09.647Z,25.59
2023-04-01T06:11:09.653Z,25.56
2023-04-01T06:12:09.679Z,25.61
2023-04-01T06:13:09.677Z,25.57
2023-04-01T06:14:09.697Z,25.62
2023-04-01T06:15:09.698Z,25.61
2023-04-01T06:16:09.758Z,25.62
2023-04-01T06:17:09.726Z,25.64
2023-04-01T06:18:09.745Z,25.67
2023-04-01T06:19:09.733Z,25.65
2023-04-01T06:20:09.748Z,25.70
2023-04-01T06:21:09.756Z,25.70
2023-04-01T06:22:09.764Z,25.69
2023-04-01T06:23:09.775Z,25.66
2023-04-01T06:24:09.776Z,25.74
2023-04-01T06:25:09.777Z,25.75
2023-04-01T06:26:09.796Z,25.72
2023-04-01T06:27:09.806Z,25.72
2023-04-01T06:28:09.818Z,25.68
2023-04-01T06:29:09.822Z,25.72
2023-04-01T06:30:09.853Z,25.71
2023-04-01T06:31:09.902Z,25.68
2023-04-01T06:32:09.894Z,25.70
2023-04-01T06:33:09.946Z,25.71
2023-04-01T06:34:09.864Z,25.74
2023-04-01T06:35:09.881Z,25.75
2023-04-01T06:36:09.914Z,25.76
2023-04-01T06:37:09.897Z,25.75
2023-04-01T06:38:09.929Z,25.78
2023-04-01T06:39:11.320Z,25.79
2023-04-01T06:40:09.911Z,25.78
2023-04-01T06:41:09.915Z,25.82
2023-04-01T06:42:09.927Z,25.79
2023-04-01T06:43:09.940Z,25.79
2023-04-01T06:44:09.944Z,25.83
2023-04-01T06:45:09.947Z,25.87
2023-04-01T06:46:09.986Z,25.84
2023-04-01T06:47:09.978Z,25.87
2023-04-01T06:48:10.022Z,25.86
2023-04-01T06:49:09.990Z,25.88
2023-04-01T06:50:10.010Z,25.88
2023-04-01T06:51:10.020Z,25.89
2023-04-01T06:52:10.021Z,25.90
2023-04-01T06:53:10.035Z,25.89
2023-04-01T06:54:10.039Z,25.94
2023-04-01T06:55:10.037Z,25.92
2023-04-01T06:56:10.054Z,25.94
2023-04-01T06:57:10.068Z,25.96
2023-04-01T06:58:10.074Z,26.00
2023-04-01T06:59:10.078Z,25.98
2023-04-01T07:00:10.073Z,26.00
2023-04-01T07:01:10.126Z,25.93
2023-04-01T07:02:10.095Z,25.94
2023-04-01T07:03:10.112Z,25.96
2023-04-01T07:04:10.126Z,25.91
2023-04-01T07:05:10.102Z,25.91
2023-04-01T07:06:10.105Z,25.93
2023-04-01T07:07:10.121Z,25.91
2023-04-01T07:08:10.120Z,25.93
2023-04-01T07:09:10.141Z,25.93
2023-04-01T07:10:10.137Z,25.94
2023-04-01T07:11:10.140Z,25.93
2023-04-01T07:12:10.147Z,25.93
2023-04-01T07:13:10.163Z,25.91
2023-04-01T07:14:10.168Z,25.89
2023-04-01T07:15:10.182Z,25.89
2023-04-01T07:16:10.181Z,25.86
2023-04-01T07:17:10.223Z,25.87
2023-04-01T07:18:10.227Z,25.88
2023-04-01T07:19:10.219Z,25.89
2023-04-01T07:20:10.230Z,25.84
2023-04-01T07:21:10.248Z,25.80
2023-04-01T07:22:10.245Z,25.79
2023-04-01T07:23:10.245Z,25.75
2023-04-01T07:24:10.260Z,25.76
2023-04-01T07:25:10.260Z,25.76
2023-04-01T07:26:10.264Z,25.78
2023-04-01T07:27:10.276Z,25.83
2023-04-01T07:28:10.272Z,25.86
2023-04-01T07:29:10.296Z,25.96
2023-04-01T07:30:10.274Z,26.02
2023-04-01T07:31:10.328Z,26.12
2023-04-01T07:32:10.279Z,26.16
2023-04-01T07:33:10.561Z,26.15
2023-04-01T07:34:10.301Z,26.16
2023-04-01T07:35:10.309Z,26.19
2023-04-01T07:36:10.323Z,26.21
2023-04-01T07:37:10.388Z,26.28
2023-04-01T07:38:10.473Z,26.33
2023-04-01T07:39:10.563Z,26.34
2023-04-01T07:40:10.598Z,26.38
2023-04-01T07:41:10.672Z,26.45
2023-04-01T07:42:10.743Z,26.48
2023-04-01T07:43:10.839Z,26.51
2023-04-01T07:44:10.899Z,26.52
2023-04-01T07:45:10.979Z,26.50
2023-04-01T07:46:11.033Z,26.51
2023-04-01T07:47:11.092Z,26.43
2023-04-01T07:48:11.174Z,26.37
2023-04-01T07:49:11.195Z,26.37
2023-04-01T07:50:11.244Z,26.32
2023-04-01T07:51:11.293Z,26.29
2023-04-01T07:52:11.292Z,26.24
2023-04-01T07:53:11.307Z,26.25
2023-04-01T07:54:11.309Z,26.22
2023-04-01T07:55:11.349Z,26.24
2023-04-01T07:56:12.270Z,26.15
2023-04-01T07:57:11.384Z,26.09
2023-04-01T07:58:11.333Z,26.01
2023-04-01T07:59:11.346Z,26.03
2023-04-01T08:00:11.330Z,26.02
2023-04-01T08:01:11.335Z,26.00
2023-04-01T08:02:11.344Z,25.98
2023-04-01T08:03:11.449Z,25.91
2023-04-01T08:04:11.515Z,25.79
2023-04-01T08:05:11.355Z,25.69
2023-04-01T08:06:11.360Z,25.66
2023-04-01T08:07:11.357Z,25.61
2023-04-01T08:08:11.348Z,25.61
2023-04-01T08:09:11.354Z,25.67
2023-04-01T08:10:11.359Z,25.68
2023-04-01T08:11:11.375Z,25.78
2023-04-01T08:12:11.367Z,25.84
2023-04-01T08:13:11.369Z,25.86
2023-04-01T08:14:11.372Z,25.85
2023-04-01T08:15:11.373Z,25.87
2023-04-01T08:16:11.456Z,25.79
2023-04-01T08:17:11.469Z,25.74
2023-04-01T08:18:11.543Z,25.70
2023-04-01T08:19:11.622Z,25.65
2023-04-01T08:20:11.688Z,25.64
2023-04-01T08:21:11.751Z,25.56
2023-04-01T08:22:11.827Z,25.48
2023-04-01T08:23:11.850Z,25.46
2023-04-01T08:24:11.829Z,25.48
2023-04-01T08:25:11.831Z,25.49
2023-04-01T08:26:11.820Z,25.51
2023-04-01T08:27:11.832Z,25.51
2023-04-01T08:28:11.840Z,25.48
2023-04-01T08:29:11.836Z,25.50
2023-04-01T08:30:11.823Z,25.51
2023-04-01T08:31:11.857Z,25.49
2023-04-01T08:32:11.967Z,25.49
2023-04-01T08:33:11.970Z,25.51
2023-04-01T08:34:11.979Z,25.45
2023-04-01T08:35:12.044Z,25.49
2023-04-01T08:36:12.135Z,25.56
2023-04-01T08:37:12.161Z,25.64
2023-04-01T08:38:12.212Z,25.68
2023-04-01T08:39:12.282Z,25.63
2023-04-01T08:40:12.347Z,25.62
2023-04-01T08:41:12.420Z,25.60
2023-04-01T08:42:12.477Z,25.63
2023-04-01T08:43:12.541Z,25.58
2023-04-01T08:44:12.604Z,25.50
2023-04-01T08:45:14.435Z,25.49
2023-04-01T08:46:12.609Z,25.45
2023-04-01T08:47:12.586Z,25.47
2023-04-01T08:48:12.627Z,25.51
2023-04-01T08:49:12.596Z,25.46
2023-04-01T08:50:12.613Z,25.38
2023-04-01T08:51:12.595Z,25.29
2023-04-01T08:52:12.593Z,25.22
2023-04-01T08:53:12.630Z,25.18
2023-04-01T08:54:12.601Z,25.13
2023-04-01T08:55:12.603Z,25.13
2023-04-01T08:56:12.602Z,25.06
2023-04-01T08:57:12.637Z,24.95
2023-04-01T08:58:12.649Z,24.83
2023-04-01T08:59:12.714Z,24.87
2023-04-01T09:00:12.740Z,25.00
2023-04-01T09:01:12.787Z,24.95
2023-04-01T09:02:12.855Z,25.04
2023-04-01T09:03:13.051Z,25.18
2023-04-01T09:04:12.946Z,25.23
2023-04-01T09:05:12.946Z,25.23
2023-04-01T09:06:12.956Z,25.25
2023-04-01T09:07:13.062Z,25.18
2023-04-01T09:08:12.987Z,25.12
2023-04-01T09:09:12.993Z,25.08
2023-04-01T09:10:12.996Z,25.08
2023-04-01T09:11:12.994Z,25.13
2023-04-01T09:12:13.019Z,25.14
2023-04-01T09:13:13.002Z,25.06
2023-04-01T09:14:13.006Z,25.02
2023-04-01T09:15:13.063Z,25.07
2023-04-01T09:16:13.128Z,25.12
2023-04-01T09:17:13.145Z,25.15
2023-04-01T09:18:13.192Z,25.17
2023-04-01T09:19:13.236Z,25.17
2023-04-01T09:20:13.298Z,25.20
2023-04-01T09:21:13.401Z,25.15
2023-04-01T09:22:13.446Z,25.11
2023-04-01T09:23:13.492Z,25.10
2023-04-01T09:24:13.544Z,25.06
2023-04-01T09:25:13.613Z,24.99
2023-04-01T09:26:13.651Z,24.99
2023-04-01T09:27:13.714Z,25.00
2023-04-01T09:28:13.728Z,25.01
2023-04-01T09:29:13.786Z,25.02
2023-04-01T09:30:13.767Z,25.07
2023-04-01T09:31:13.780Z,25.11
2023-04-01T09:32:13.759Z,25.19
2023-04-01T09:33:13.759Z,25.22
2023-04-01T09:34:13.735Z,25.21
2023-04-01T09:35:13.728Z,25.30
2023-04-01T09:36:13.716Z,25.30
2023-04-01T09:37:13.704Z,25.27
2023-04-01T09:38:13.698Z,25.29
2023-04-01T09:39:13.690Z,25.29
2023-04-01T09:40:13.693Z,25.33
2023-04-01T09:41:13.678Z,25.25
2023-04-01T09:42:13.677Z,25.32
2023-04-01T09:43:13.651Z,25.37
2023-04-01T09:44:13.643Z,25.41
2023-04-01T09:45:13.646Z,25.47
2023-04-01T09:46:13.669Z,25.49
2023-04-01T09:47:13.645Z,25.50
2023-04-01T09:48:13.665Z,25.50
2023-04-01T09:49:13.648Z,25.51
2023-04-01T09:50:13.691Z,25.53
2023-04-01T09:51:13.739Z,25.53
2023-04-01T09:52:13.786Z,25.54
2023-04-01T09:53:13.827Z,25.55
2023-04-01T09:54:13.870Z,25.58
2023-04-01T09:55:13.922Z,25.57
2023-04-01T09:56:13.947Z,25.52
2023-04-01T09:57:14.019Z,25.49
2023-04-01T09:58:14.001Z,25.46
2023-04-01T09:59:14.025Z,25.46
2023-04-01T10:00:14.056Z,25.50
2023-04-01T10:01:14.093Z,25.52
2023-04-01T10:02:14.105Z,25.51
2023-04-01T10:03:14.131Z,25.47
2023-04-01T10:04:14.148Z,25.43
2023-04-01T10:05:14.219Z,25.44
2023-04-01T10:06:14.220Z,25.48
2023-04-01T10:07:14.203Z,25.50
2023-04-01T10:08:14.204Z,25.52
2023-04-01T10:09:14.228Z,25.51
2023-04-01T10:10:14.274Z,25.49
2023-04-01T10:11:14.270Z,25.51
2023-04-01T10:12:14.266Z,25.46
2023-04-01T10:13:14.281Z,25.45
2023-04-01T10:14:14.278Z,25.42
2023-04-01T10:15:14.299Z,25.42
2023-04-01T10:16:14.326Z,25.44
2023-04-01T10:17:14.308Z,25.50
2023-04-01T10:18:14.302Z,25.52
2023-04-01T10:19:14.318Z,25.54
2023-04-01T10:20:14.335Z,25.59
2023-04-01T10:21:14.377Z,25.63
2023-04-01T10:22:14.347Z,25.59
2023-04-01T10:23:14.354Z,25.57
2023-04-01T10:24:14.365Z,25.52
2023-04-01T10:25:14.364Z,25.46
2023-04-01T10:26:14.359Z,25.44
2023-04-01T10:27:14.360Z,25.40
2023-04-01T10:28:14.362Z,25.39
2023-04-01T10:29:14.373Z,25.38
2023-04-01T10:30:14.364Z,25.45
2023-04-01T10:31:14.401Z,25.44
2023-04-01T10:32:14.411Z,25.40
2023-04-01T10:33:14.343Z,25.37
2023-04-01T10:34:14.349Z,25.42
2023-04-01T10:35:14.343Z,25.47
2023-04-01T10:36:14.387Z,25.49
2023-04-01T10:37:14.349Z,25.54
2023-04-01T10:38:14.338Z,25.59
2023-04-01T10:39:14.323Z,25.56
2023-04-01T10:40:14.314Z,25.47
2023-04-01T10:41:14.305Z,25.42
2023-04-01T10:42:14.283Z,25.38
2023-04-01T10:43:14.288Z,25.38
2023-04-01T10:44:14.249Z,25.28
2023-04-01T10:45:14.248Z,25.26
2023-04-01T10:46:15.682Z,25.24
2023-04-01T10:47:14.231Z,25.20
2023-04-01T10:48:14.240Z,25.24
2023-04-01T10:49:14.198Z,25.30
2023-04-01T10:50:14.202Z,25.36
2023-04-01T10:51:14.181Z,25.35
2023-04-01T10:52:14.174Z,25.34
2023-04-01T10:53:14.165Z,25.33
2023-04-01T10:54:14.137Z,25.29
2023-04-01T10:55:14.156Z,25.28
2023-04-01T10:56:14.127Z,25.23
2023-04-01T10:57:14.135Z,25.22
2023-04-01T10:58:14.102Z,25.19
2023-04-01T10:59:14.097Z,25.15
2023-04-01T11:00:14.068Z,25.20
2023-04-01T11:01:14.103Z,25.18
2023-04-01T11:02:14.131Z,25.15
2023-04-01T11:03:14.131Z,25.11
2023-04-01T11:04:14.074Z,25.06
2023-04-01T11:05:14.032Z,25.04
2023-04-01T11:06:14.016Z,25.06
2023-04-01T11:07:13.997Z,25.10
2023-04-01T11:08:13.985Z,25.14
2023-04-01T11:09:13.973Z,25.16
2023-04-01T11:10:13.981Z,25.13
2023-04-01T11:11:13.965Z,25.10
2023-04-01T11:12:13.926Z,25.07
2023-04-01T11:13:13.934Z,25.06
2023-04-01T11:14:13.911Z,25.12
2023-04-01T11:15:13.891Z,25.15
2023-04-01T11:16:13.915Z,25.18
2023-04-01T11:17:13.860Z,25.22
2023-04-01T11:18:13.929Z,25.17
2023-04-01T11:19:13.828Z,25.23
2023-04-01T11:20:13.893Z,25.27
2023-04-01T11:21:13.802Z,25.31
2023-04-01T11:22:13.777Z,25.35
2023-04-01T11:23:13.776Z,25.38
2023-04-01T11:24:13.753Z,25.41
2023-04-01T11:25:13.741Z,25.44
2023-04-01T11:26:13.725Z,25.40
2023-04-01T11:27:13.794Z,25.43
2023-04-01T11:28:13.716Z,25.45
2023-04-01T11:29:13.684Z,25.47
2023-04-01T11:30:13.766Z,25.49
2023-04-01T11:31:13.755Z,25.50
2023-04-01T11:32:13.654Z,25.52
2023-04-01T11:33:13.655Z,25.55
2023-04-01T11:34:13.651Z,25.55
2023-04-01T11:35:13.693Z,25.63
2023-04-01T11:36:13.773Z,25.59
2023-04-01T11:37:13.789Z,25.63
2023-04-01T11:38:13.833Z,25.63
2023-04-01T11:39:13.877Z,25.65
2023-04-01T11:40:13.930Z,25.63
2023-04-01T11:41:13.971Z,25.65
2023-04-01T11:42:14.029Z,25.67
2023-04-01T11:43:26.171Z,25.69
2023-04-01T11:44:15.063Z,25.69
2023-04-01T11:45:14.040Z,25.68
2023-04-01T11:46:14.072Z,25.69
2023-04-01T11:47:14.016Z,25.69
2023-04-01T11:48:14.015Z,25.70
2023-04-01T11:49:14.002Z,25.70
2023-04-01T11:50:13.986Z,25.69
2023-04-01T11:51:13.985Z,25.69
2023-04-01T11:52:13.965Z,25.75
2023-04-01T11:53:13.962Z,25.74
2023-04-01T11:54:13.959Z,25.75
2023-04-01T11:55:13.959Z,25.74
2023-04-01T11:56:13.963Z,25.75
2023-04-01T11:57:13.986Z,25.76
2023-04-01T11:58:13.927Z,25.79
2023-04-01T11:59:13.913Z,25.79
2023-04-01T12:00:13.909Z,25.79
2023-04-01T12:01:13.897Z,25.79
2023-04-01T12:02:13.968Z,25.85
2023-04-01T12:03:13.909Z,25.82
2023-04-01T12:04:13.926Z,25.88
2023-04-01T12:05:13.844Z,25.87
2023-04-01T12:06:13.868Z,25.88
2023-04-01T12:07:13.838Z,25.91
2023-04-01T12:08:13.826Z,25.93
2023-04-01T12:09:13.811Z,25.96
2023-04-01T12:10:13.812Z,25.95
2023-04-01T12:11:13.798Z,25.96
2023-04-01T12:12:13.798Z,25.98
2023-04-01T12:13:13.800Z,26.00
2023-04-01T12:14:13.852Z,25.99
2023-04-01T12:15:13.873Z,26.00
2023-04-01T12:16:13.889Z,26.03
2023-04-01T12:17:13.858Z,26.04
2023-04-01T12:18:13.990Z,26.02
2023-04-01T12:19:13.934Z,26.03
2023-04-01T12:20:13.939Z,26.04
2023-04-01T12:21:13.975Z,26.03
2023-04-01T12:22:14.039Z,26.05
2023-04-01T12:23:14.083Z,26.03
2023-04-01T12:24:14.154Z,26.02
2023-04-01T12:25:14.198Z,26.06
2023-04-01T12:26:14.250Z,26.05
2023-04-01T12:27:14.304Z,26.06
2023-04-01T12:28:14.334Z,26.05
2023-04-01T12:29:14.421Z,26.03
2023-04-01T12:30:14.460Z,26.03
2023-04-01T12:31:14.518Z,26.04
2023-04-01T12:32:14.619Z,26.04
2023-04-01T12:33:14.650Z,26.07
2023-04-01T12:34:14.634Z,26.06
2023-04-01T12:35:14.689Z,26.05
2023-04-01T12:36:14.836Z,26.02
2023-04-01T12:37:14.790Z,26.03
2023-04-01T12:38:14.925Z,26.01
2023-04-01T12:39:14.796Z,25.95
2023-04-01T12:40:14.760Z,25.89
2023-04-01T12:41:14.767Z,25.83
2023-04-01T12:42:14.742Z,25.80
2023-04-01T12:43:14.828Z,25.75
2023-04-01T12:44:14.704Z,25.72
2023-04-01T12:45:14.690Z,25.69
2023-04-01T12:46:14.720Z,25.67
2023-04-01T12:47:14.673Z,25.63
2023-04-01T12:48:14.748Z,25.62
2023-04-01T12:49:14.647Z,25.63
2023-04-01T12:50:14.638Z,25.61
2023-04-01T12:51:14.644Z,25.63
2023-04-01T12:52:14.671Z,25.65
2023-04-01T12:53:14.797Z,25.63
2023-04-01T12:54:14.716Z,25.61